createdAt,value
2023-04-25T00:05:13.222Z,2.10
2023-04-25T00:10:35.110Z,3.33
2023-04-25T00:15:57.698Z,5.00
2023-04-25T00:21:21.159Z,2.45
2023-04-25T00:26:42.984Z,2.30
2023-04-25T00:32:05.031Z,3.88
2023-04-25T00:37:27.071Z,3.78
2023-04-25T00:42:49.265Z,4.35
2023-04-25T00:48:11.347Z,5.55
2023-04-25T00:53:33.827Z,2.63
2023-04-25T00:58:57.954Z,3.35
2023-04-25T01:04:20.112Z,4.57
2023-04-25T01:09:42.357Z,4.90
2023-04-25T01:15:04.717Z,3.67
2023-04-25T01:20:28.154Z,4.72
2023-04-25T01:25:50.737Z,2.88
2023-04-25T01:31:13.334Z,3.05
2023-04-25T01:36:36.278Z,4.88
2023-04-25T01:41:58.427Z,2.58
2023-04-25T01:47:20.274Z,6.13
2023-04-25T01:52:42.200Z,6.45
2023-04-25T01:58:05.044Z,2.90
2023-04-25T02:03:27.179Z,1.75
2023-04-25T02:08:49.270Z,2.53
2023-04-25T02:14:11.011Z,2.80
2023-04-25T02:19:32.945Z,3.05
2023-04-25T02:24:55.262Z,3.15
2023-04-25T02:30:17.198Z,2.63
2023-04-25T02:35:39.089Z,4.93
2023-04-25T02:41:01.188Z,2.95
2023-04-25T02:46:32.071Z,1.85
2023-04-25T02:52:01.024Z,2.15
2023-04-25T02:57:22.820Z,6.18
2023-04-25T03:02:44.739Z,2.47
2023-04-25T03:08:06.566Z,4.13
2023-04-25T03:13:28.704Z,4.55
2023-04-25T03:18:51.658Z,4.97
2023-04-25T03:24:13.840Z,4.90
2023-04-25T03:29:35.624Z,3.45
2023-04-25T03:34:57.449Z,3.88
2023-04-25T03:40:19.209Z,3.13
2023-04-25T03:45:41.172Z,4.40
2023-04-25T03:51:02.940Z,6.85
2023-04-25T03:56:25.175Z,4.38
2023-04-25T04:01:46.994Z,4.00
2023-04-25T04:07:08.865Z,3.83
2023-04-25T04:12:30.763Z,3.35
2023-04-25T04:17:52.609Z,5.35
2023-04-25T04:23:14.720Z,3.53
2023-04-25T04:28:36.946Z,5.35
2023-04-25T04:33:58.901Z,4.15
2023-04-25T04:39:21.680Z,4.03
2023-04-25T04:44:45.817Z,3.63
2023-04-25T04:50:10.532Z,5.75
2023-04-25T04:55:32.431Z,4.20
2023-04-25T05:00:54.235Z,4.40
2023-04-25T05:06:16.264Z,3.55
2023-04-25T05:11:38.056Z,3.42
2023-04-25T05:16:59.893Z,3.17
2023-04-25T05:22:22.009Z,2.60
2023-04-25T05:27:43.993Z,3.17
2023-04-25T05:33:05.790Z,2.88
2023-04-25T05:38:27.563Z,4.88
2023-04-25T05:43:51.131Z,4.55
2023-04-25T05:49:13.238Z,3.72
2023-04-25T05:54:35.151Z,1.95
2023-04-25T05:59:56.980Z,4.32
2023-04-25T06:05:19.022Z,3.83
2023-04-25T06:10:41.240Z,2.63
2023-04-25T06:16:03.011Z,1.90
2023-04-25T06:21:24.893Z,3.63
2023-04-25T06:26:46.626Z,5.80
2023-04-25T06:32:08.467Z,5.15
2023-04-25T06:37:30.301Z,7.15
2023-04-25T06:42:52.082Z,3.22
2023-04-25T06:48:13.852Z,3.28
2023-04-25T06:53:35.672Z,7.32
2023-04-25T06:58:57.555Z,3.30
2023-04-25T07:04:19.617Z,3.80
2023-04-25T07:09:41.594Z,5.10
2023-04-25T07:15:07.205Z,4.38
2023-04-25T07:25:50.822Z,5.72
2023-04-25T07:31:12.677Z,3.88
2023-04-25T07:36:34.526Z,6.47
2023-04-25T07:41:56.339Z,6.05
2023-04-25T07:47:20.317Z,4.03
2023-04-25T07:52:42.289Z,3.97
2023-04-25T07:58:04.070Z,4.68
2023-04-25T08:03:26.060Z,2.53
2023-04-25T08:08:48.231Z,2.72
2023-04-25T08:14:10.275Z,5.85
2023-04-25T08:19:32.120Z,1.90
2023-04-25T08:24:53.932Z,4.05
2023-04-25T08:30:16.021Z,3.10
2023-04-25T08:35:37.982Z,4.35
2023-04-25T08:41:01.135Z,3.33
2023-04-25T08:46:24.367Z,4.38
2023-04-25T08:51:52.442Z,4.60
2023-04-25T08:57:16.664Z,4.75
2023-04-25T09:02:38.885Z,4.63
2023-04-25T09:08:02.119Z,5.68
2023-04-25T09:13:29.254Z,5.38
2023-04-25T09:18:51.443Z,6.13
2023-04-25T09:24:13.764Z,5.18
2023-04-25T09:29:37.553Z,3.47
2023-04-25T09:34:59.553Z,4.05
2023-04-25T09:40:21.530Z,4.03
2023-04-25T09:45:48.490Z,4.68
2023-04-25T09:51:17.852Z,3.08
2023-04-25T09:56:40.265Z,2.40
2023-04-25T10:02:03.030Z,2.72
2023-04-25T10:07:27.931Z,2.13
2023-04-25T10:12:50.205Z,4.33
2023-04-25T10:18:12.363Z,3.83
2023-04-25T10:23:38.197Z,2.90
2023-04-25T10:29:04.978Z,2.42
2023-04-25T10:34:42.821Z,3.25
2023-04-25T10:40:13.999Z,3.60
2023-04-25T10:45:52.822Z,2.05
2023-04-25T10:51:47.310Z,1.83
2023-04-25T10:57:29.030Z,3.40
2023-04-25T11:02:59.388Z,3.22
2023-04-25T11:08:38.415Z,2.90
2023-04-25T11:14:00.207Z,2.45
2023-04-25T11:19:22.151Z,3.45
2023-04-25T11:24:44.441Z,3.10
2023-04-25T11:30:14.629Z,3.33
2023-04-25T11:35:36.788Z,5.05
2023-04-25T11:40:58.739Z,1.92
2023-04-25T11:46:21.522Z,7.10
2023-04-25T11:51:45.081Z,4.22
2023-04-25T11:57:07.052Z,5.85
2023-04-25T12:02:29.340Z,4.28
2023-04-25T12:07:51.632Z,2.20
2023-04-25T12:13:21.620Z,3.90
2023-04-25T12:18:43.412Z,3.05
2023-04-25T12:24:20.718Z,1.77
2023-04-25T12:29:52.568Z,3.75
2023-04-25T12:35:14.372Z,1.45
2023-04-25T12:40:36.485Z,2.95
2023-04-25T12:45:58.529Z,4.65
2023-04-25T12:51:20.298Z,1.60
2023-04-25T12:56:43.041Z,3.03
2023-04-25T13:02:04.909Z,4.78
2023-04-25T13:07:26.803Z,2.50
2023-04-25T13:12:48.586Z,1.90
2023-04-25T13:18:10.488Z,1.45
2023-04-25T13:23:32.341Z,4.60
2023-04-25T13:28:54.247Z,1.70
2023-04-25T13:34:16.115Z,2.38
2023-04-25T13:39:38.018Z,1.15
2023-04-25T13:44:59.807Z,5.15
2023-04-25T13:50:22.249Z,1.80
2023-04-25T13:55:44.069Z,2.47
2023-04-25T14:01:06.110Z,2.00
2023-04-25T14:06:28.658Z,1.95
2023-04-25T14:11:50.945Z,3.75
2023-04-25T14:17:12.906Z,2.30
2023-04-25T14:22:35.121Z,1.13
2023-04-25T14:27:57.066Z,2.65
2023-04-25T14:33:18.849Z,3.50
2023-04-25T14:38:40.893Z,1.42
2023-04-25T14:44:02.782Z,1.05
2023-04-25T14:49:24.580Z,2.97
2023-04-25T14:54:46.553Z,2.00
2023-04-25T15:00:10.723Z,2.03
2023-04-25T15:05:32.584Z,5.25
2023-04-25T15:10:54.576Z,9.07
2023-04-25T15:16:16.543Z,9.43
2023-04-25T15:21:38.477Z,8.68
2023-04-25T15:27:00.735Z,8.70
2023-04-25T15:32:23.910Z,8.52
2023-04-25T15:37:46.491Z,4.03
2023-04-25T15:43:11.283Z,1.92
2023-04-25T15:48:33.709Z,6.83
2023-04-25T15:53:56.683Z,5.03
2023-04-25T15:59:18.506Z,2.03
2023-04-25T16:04:40.522Z,4.38
2023-04-25T16:10:02.446Z,8.52
2023-04-25T16:15:24.796Z,9.32
2023-04-25T16:20:46.581Z,8.75
2023-04-25T16:26:09.182Z,13.57
2023-04-25T16:31:31.057Z,8.00
2023-04-25T16:36:55.081Z,9.07
2023-04-25T16:42:18.003Z,4.78
2023-04-25T16:47:39.844Z,7.10
2023-04-25T16:53:01.800Z,6.70
2023-04-25T16:58:23.633Z,4.30
2023-04-25T17:03:45.657Z,3.67
2023-04-25T17:09:08.512Z,4.72
2023-04-25T17:14:30.378Z,2.72
2023-04-25T17:19:52.327Z,2.45
2023-04-25T17:25:14.049Z,2.95
2023-04-25T17:30:36.228Z,3.53
2023-04-25T17:35:58.286Z,3.53
2023-04-25T17:41:21.092Z,2.00
2023-04-25T17:46:42.929Z,3.17
2023-04-25T17:52:05.184Z,2.88
2023-04-25T17:57:27.504Z,1.30
2023-04-25T18:02:51.432Z,3.45
2023-04-25T18:08:14.013Z,1.83
2023-04-25T18:13:37.429Z,2.95
2023-04-25T18:19:05.530Z,3.17
2023-04-25T18:24:27.628Z,2.25
2023-04-25T18:29:49.578Z,7.93
2023-04-25T18:35:12.428Z,5.13
2023-04-25T18:40:35.179Z,2.53
2023-04-25T18:45:59.472Z,9.27
2023-04-25T18:51:29.672Z,1.60
2023-04-25T18:56:51.659Z,6.05
2023-04-25T19:02:16.307Z,3.38
2023-04-25T19:07:38.596Z,13.40
2023-04-25T19:13:00.945Z,15.63
2023-04-25T19:18:23.368Z,19.17
2023-04-25T19:23:45.202Z,15.38
2023-04-25T19:29:12.754Z,13.98
2023-04-25T19:34:34.588Z,8.50
2023-04-25T19:39:57.074Z,10.65
2023-04-25T19:45:18.987Z,14.27
2023-04-25T19:50:41.994Z,18.00
2023-04-25T19:56:03.838Z,17.27
2023-04-25T20:01:26.547Z,19.40
2023-04-25T20:06:48.362Z,5.82
2023-04-25T20:12:12.023Z,13.77
2023-04-25T20:17:35.068Z,12.77
2023-04-25T20:22:56.929Z,13.57
2023-04-25T20:28:18.952Z,14.70
2023-04-25T20:33:43.897Z,10.98
2023-04-25T20:39:05.789Z,21.30
2023-04-25T20:44:27.596Z,13.38
2023-04-25T20:49:49.620Z,5.80
2023-04-25T20:55:12.309Z,7.88
2023-04-25T21:00:35.184Z,7.85
2023-04-25T21:05:57.334Z,12.45
2023-04-25T21:11:19.725Z,6.53
2023-04-25T21:16:42.877Z,4.60
2023-04-25T21:22:05.100Z,8.00
2023-04-25T21:27:26.952Z,5.88
2023-04-25T21:32:51.686Z,3.53
2023-04-25T21:38:14.865Z,4.60
2023-04-25T21:43:37.004Z,6.68
2023-04-25T21:48:58.963Z,3.30
2023-04-25T21:54:20.787Z,2.78
2023-04-25T21:59:43.637Z,3.53
2023-04-25T22:05:06.666Z,4.07
2023-04-25T22:10:28.664Z,3.30
2023-04-25T22:15:50.735Z,2.25
2023-04-25T22:21:13.095Z,3.15
2023-04-25T22:26:34.961Z,4.97
2023-04-25T22:31:57.099Z,2.58
2023-04-25T22:37:18.946Z,2.55
2023-04-25T22:42:42.439Z,3.38
2023-04-25T22:48:04.430Z,1.55
2023-04-25T22:53:26.653Z,1.17
2023-04-25T22:58:50.025Z,1.48
2023-04-25T23:04:12.217Z,2.58
2023-04-25T23:09:34.498Z,1.45
2023-04-25T23:14:56.292Z,1.10
2023-04-25T23:20:18.100Z,1.10
2023-04-25T23:25:43.269Z,1.25
2023-04-25T23:31:12.572Z,3.58
2023-04-25T23:36:34.654Z,1.20
2023-04-25T23:41:58.011Z,1.63
2023-04-25T23:47:20.638Z,0.70
2023-04-25T23:52:42.641Z,1.08
2023-04-25T23:58:04.519Z,1.33
